Time;durP1;ratioP1;P1;durP2;ratioP2;P2;SDS_P1;SDS_P2;PMS_P1;PMS_P2;Temp;Humidity;BMP_temperature;BMP_pressure;BME280_temperature;BME280_humidity;BME280_pressure;Samples;Min_cycle;Max_cycle;Signal;HPM_P1;HPM_P2
2022/05/29 00:00:13;;;;;;;4.20;2.22;;;13.90;99.90;;;;;;4993513;28;20038;-89
2022/05/29 00:02:40;;;;;;;4.10;2.28;;;13.80;99.90;;;;;;4989051;28;20090;-88
2022/05/29 00:05:08;;;;;;;4.82;2.25;;;13.80;99.90;;;;;;4972587;28;20023;-90
2022/05/29 00:07:35;;;;;;;7.97;2.58;;;13.80;99.90;;;;;;4988784;28;20117;-88
2022/05/29 00:10:04;;;;;;;9.32;2.83;;;13.80;99.90;;;;;;4994615;28;20046;-87
2022/05/29 00:12:30;;;;;;;4.90;2.60;;;13.80;99.90;;;;;;4999099;28;20045;-88
2022/05/29 00:14:56;;;;;;;6.55;2.60;;;13.80;99.90;;;;;;4999729;28;20031;-86
2022/05/29 00:17:22;;;;;;;4.65;2.35;;;13.70;99.90;;;;;;5000343;28;20034;-85
2022/05/29 00:19:48;;;;;;;6.57;2.00;;;13.70;99.90;;;;;;4981090;28;20561;-88
2022/05/29 00:22:20;;;;;;;12.35;2.40;;;13.70;99.90;;;;;;4995551;28;20062;-88
2022/05/29 00:24:47;;;;;;;5.93;3.08;;;13.60;99.90;;;;;;4989651;28;20035;-88
2022/05/29 00:27:16;;;;;;;6.68;2.30;;;13.60;99.90;;;;;;4999182;23;20071;-84
2022/05/29 00:29:43;;;;;;;4.90;2.53;;;13.50;99.90;;;;;;4991593;28;20073;-84
2022/05/29 00:32:09;;;;;;;4.43;2.15;;;13.50;99.90;;;;;;4978790;28;20031;-83
2022/05/29 00:34:35;;;;;;;9.88;2.08;;;13.50;99.90;;;;;;4977619;28;20033;-83
2022/05/29 00:37:03;;;;;;;6.28;2.30;;;13.40;99.90;;;;;;4963297;29;20512;-82
2022/05/29 00:39:29;;;;;;;4.13;2.50;;;13.30;99.90;;;;;;4958990;29;20028;-84
2022/05/29 00:41:55;;;;;;;4.80;2.20;;;13.40;99.90;;;;;;4958782;29;20071;-83
2022/05/29 00:44:29;;;;;;;7.10;2.08;;;13.40;99.90;;;;;;4952175;29;20439;-83
2022/05/29 00:46:57;;;;;;;6.38;2.85;;;13.30;99.90;;;;;;4945291;29;20372;-85
2022/05/29 00:49:28;;;;;;;6.78;2.67;;;13.30;99.90;;;;;;4944348;29;20042;-84
2022/05/29 00:52:16;;;;;;;9.45;4.18;;;13.30;99.90;;;;;;4943751;29;20027;-84
2022/05/29 00:54:55;;;;;;;5.32;3.03;;;13.30;99.90;;;;;;4943419;29;20472;-83
2022/05/29 00:57:28;;;;;;;6.80;2.30;;;13.30;99.90;;;;;;4943469;29;20034;-83
2022/05/29 00:59:59;;;;;;;7.32;2.20;;;13.20;99.90;;;;;;4954618;29;20049;-82
2022/05/29 01:02:25;;;;;;;4.25;1.95;;;13.20;99.90;;;;;;4971357;29;20031;-83
2022/05/29 01:04:51;;;;;;;7.03;2.00;;;13.20;99.90;;;;;;4945938;29;20027;-85
2022/05/29 01:07:19;;;;;;;5.25;1.88;;;13.20;99.90;;;;;;4959409;28;20062;-84
2022/05/29 01:09:47;;;;;;;5.22;2.08;;;13.10;99.90;;;;;;4944015;29;20032;-84
2022/05/29 01:12:16;;;;;;;8.25;2.10;;;13.00;99.90;;;;;;4945405;29;20034;-84
2022/05/29 01:15:03;;;;;;;5.97;2.40;;;13.00;99.90;;;;;;4941529;29;20063;-84
2022/05/29 01:17:33;;;;;;;5.68;2.10;;;13.00;99.90;;;;;;4941318;29;20395;-85
2022/05/29 01:20:13;;;;;;;5.00;2.00;;;12.90;99.90;;;;;;4942320;29;20027;-84
2022/05/29 01:23:04;;;;;;;4.82;2.03;;;12.90;99.90;;;;;;4943755;29;20041;-83
2022/05/29 01:25:59;;;;;;;7.15;2.60;;;12.90;99.90;;;;;;4952570;29;20032;-83
2022/05/29 01:28:52;;;;;;;6.20;2.17;;;12.90;99.90;;;;;;4946286;29;20039;-84
2022/05/29 01:31:33;;;;;;;4.68;2.00;;;12.90;99.90;;;;;;4941310;29;20079;-84
2022/05/29 01:34:24;;;;;;;5.55;2.83;;;12.90;99.90;;;;;;4939937;29;20036;-84
2022/05/29 01:37:02;;;;;;;4.93;2.00;;;12.90;99.90;;;;;;4956054;29;20032;-84
2022/05/29 01:39:40;;;;;;;10.45;2.45;;;12.80;99.90;;;;;;4957299;29;20090;-84
2022/05/29 01:42:29;;;;;;;3.92;1.73;;;12.80;99.90;;;;;;4952886;29;20031;-84
2022/05/29 01:45:13;;;;;;;6.57;2.90;;;12.80;99.90;;;;;;4942285;29;20174;-83
2022/05/29 01:47:58;;;;;;;6.23;2.67;;;12.80;99.90;;;;;;4942097;29;20102;-84
2022/05/29 01:50:50;;;;;;;5.55;2.17;;;12.80;99.90;;;;;;4940628;29;20667;-83
2022/05/29 01:53:23;;;;;;;6.65;2.50;;;12.80;99.90;;;;;;4939055;29;20107;-83
2022/05/29 01:55:57;;;;;;;5.40;2.20;;;12.80;99.90;;;;;;4938847;29;20043;-84
2022/05/29 01:58:30;;;;;;;4.55;2.42;;;12.80;99.90;;;;;;4939300;29;20070;-85
2022/05/29 02:01:00;;;;;;;5.95;2.10;;;12.80;99.90;;;;;;4938920;29;20023;-85
2022/05/29 02:03:32;;;;;;;3.88;2.38;;;12.80;99.90;;;;;;4938865;29;20038;-85
2022/05/29 02:06:16;;;;;;;4.10;2.20;;;12.80;99.90;;;;;;4938214;29;20055;-84
2022/05/29 02:08:46;;;;;;;19.55;2.70;;;12.70;99.90;;;;;;4941413;29;20031;-84
2022/05/29 02:11:21;;;;;;;5.32;2.03;;;12.60;99.90;;;;;;4942179;29;20028;-83
2022/05/29 02:13:53;;;;;;;5.65;2.13;;;12.60;99.90;;;;;;4941191;29;20034;-84
2022/05/29 02:16:54;;;;;;;4.53;2.10;;;12.50;99.90;;;;;;4953642;29;20086;-82
2022/05/29 02:19:29;;;;;;;6.82;2.30;;;12.40;99.90;;;;;;4936718;29;20075;-83
2022/05/29 02:22:01;;;;;;;6.00;2.03;;;12.30;99.90;;;;;;4939559;29;20529;-83
2022/05/29 02:24:43;;;;;;;5.28;2.15;;;12.20;99.90;;;;;;4942133;29;20090;-84
2022/05/29 02:27:34;;;;;;;5.30;2.45;;;12.20;99.90;;;;;;4937898;29;20043;-84
2022/05/29 02:30:03;;;;;;;4.43;1.98;;;12.10;99.90;;;;;;4937390;29;20043;-84
2022/05/29 02:32:41;;;;;;;4.03;1.75;;;12.10;99.90;;;;;;4937650;29;20125;-83
2022/05/29 02:35:29;;;;;;;4.13;1.52;;;12.00;99.90;;;;;;4936651;29;20516;-84
2022/05/29 02:38:07;;;;;;;3.65;2.13;;;12.00;99.90;;;;;;4945532;29;20028;-84
2022/05/29 02:40:38;;;;;;;5.35;1.75;;;11.90;99.90;;;;;;4938298;29;20177;-85
2022/05/29 02:43:15;;;;;;;4.47;2.03;;;11.80;99.90;;;;;;4937981;29;20490;-84
2022/05/29 02:46:04;;;;;;;3.97;1.70;;;11.70;99.90;;;;;;4939358;29;20130;-83
2022/05/29 02:48:45;;;;;;;6.85;2.30;;;11.60;99.90;;;;;;4934146;29;20044;-84
2022/05/29 02:51:24;;;;;;;5.35;1.63;;;11.60;99.90;;;;;;4937794;29;20071;-83
2022/05/29 02:53:50;;;;;;;3.13;1.85;;;11.60;99.90;;;;;;4937917;29;20373;-84
2022/05/29 02:56:16;;;;;;;6.57;1.90;;;11.50;99.90;;;;;;4937313;29;20027;-82
2022/05/29 02:58:47;;;;;;;3.78;1.92;;;11.50;99.90;;;;;;4941731;29;20039;-84
2022/05/29 03:01:38;;;;;;;3.97;1.83;;;11.40;99.90;;;;;;4926598;29;20071;-84
2022/05/29 03:04:29;;;;;;;3.50;1.83;;;11.40;99.90;;;;;;4941980;29;20032;-83
2022/05/29 03:07:24;;;;;;;5.55;2.03;;;11.30;99.90;;;;;;4940077;29;20503;-82
2022/05/29 03:10:12;;;;;;;6.15;2.03;;;11.30;99.90;;;;;;4936175;29;20083;-82
2022/05/29 03:13:30;;;;;;;4.93;2.03;;;11.30;99.90;;;;;;4953121;29;20073;-84
2022/05/29 03:16:07;;;;;;;4.35;2.40;;;11.30;99.90;;;;;;4930290;29;20071;-83
2022/05/29 03:18:50;;;;;;;7.03;2.35;;;11.20;99.90;;;;;;4936235;29;20079;-84
2022/05/29 03:21:30;;;;;;;4.53;2.30;;;11.20;99.90;;;;;;4952271;29;20110;-85
2022/05/29 03:24:08;;;;;;;3.15;2.08;;;11.20;99.90;;;;;;4938229;29;20472;-83
2022/05/29 03:26:43;;;;;;;6.28;1.80;;;11.20;99.90;;;;;;4961041;29;20016;-82
2022/05/29 03:29:16;;;;;;;3.58;1.77;;;11.30;99.90;;;;;;4958882;29;20035;-83
2022/05/29 03:31:44;;;;;;;2.22;1.80;;;11.20;99.90;;;;;;4949656;29;20070;-83
2022/05/29 03:34:12;;;;;;;3.90;1.75;;;11.30;99.90;;;;;;4945483;29;20062;-84
2022/05/29 03:36:44;;;;;;;4.68;1.83;;;11.30;99.90;;;;;;4950563;29;20079;-83
2022/05/29 03:39:10;;;;;;;4.38;1.80;;;11.30;99.90;;;;;;4973697;29;20046;-82
2022/05/29 03:41:43;;;;;;;9.25;1.80;;;11.30;99.90;;;;;;4957525;29;20059;-84
2022/05/29 03:44:10;;;;;;;13.57;2.53;;;11.40;99.90;;;;;;4958283;29;20039;-83
2022/05/29 03:46:36;;;;;;;2.25;1.45;;;11.40;99.90;;;;;;4960193;29;20042;-83
2022/05/29 03:49:02;;;;;;;3.15;1.73;;;11.50;99.90;;;;;;4951269;29;20035;-82
2022/05/29 03:51:27;;;;;;;7.97;1.88;;;11.60;99.90;;;;;;4955587;29;20040;-85
2022/05/29 03:53:53;;;;;;;3.13;1.45;;;11.60;99.90;;;;;;4943810;29;20024;-83
2022/05/29 03:56:19;;;;;;;6.35;1.88;;;11.60;99.90;;;;;;4942434;29;20392;-85
2022/05/29 03:58:44;;;;;;;3.55;1.73;;;11.60;99.90;;;;;;4943392;29;20038;-83
2022/05/29 04:01:10;;;;;;;5.82;1.92;;;11.60;99.90;;;;;;4940975;29;20042;-84
2022/05/29 04:03:36;;;;;;;6.55;2.05;;;11.60;99.90;;;;;;4941432;29;20441;-84
2022/05/29 04:06:02;;;;;;;5.53;1.92;;;11.70;99.90;;;;;;4943644;29;20028;-85
2022/05/29 04:13:57;;;;;;;5.60;1.90;;;11.90;99.90;;;;;;4956117;29;20062;-83
2022/05/29 04:16:23;;;;;;;4.32;1.85;;;12.00;99.90;;;;;;4941049;29;20028;-83
2022/05/29 04:18:49;;;;;;;5.90;2.10;;;12.10;99.90;;;;;;4941545;29;20484;-83
2022/05/29 04:21:15;;;;;;;7.38;1.90;;;12.00;99.90;;;;;;4940995;29;20455;-83
2022/05/29 04:23:40;;;;;;;3.03;1.73;;;12.10;99.90;;;;;;4942653;29;20054;-83
2022/05/29 04:26:06;;;;;;;6.57;1.98;;;12.10;99.90;;;;;;4942293;29;20130;-84
2022/05/29 04:28:33;;;;;;;12.55;2.25;;;12.10;99.90;;;;;;4955922;29;20039;-82
2022/05/29 04:30:58;;;;;;;4.93;2.00;;;12.10;99.90;;;;;;4958241;29;20035;-82
2022/05/29 04:33:25;;;;;;;10.60;1.70;;;12.10;99.90;;;;;;4958461;29;20039;-82
2022/05/29 04:35:53;;;;;;;8.57;2.10;;;12.20;99.90;;;;;;4958657;29;20087;-83
2022/05/29 04:38:20;;;;;;;5.68;1.90;;;12.20;99.90;;;;;;4957522;29;20042;-83
2022/05/29 04:40:46;;;;;;;4.20;1.40;;;12.20;99.90;;;;;;4949786;29;20028;-84
2022/05/29 04:43:13;;;;;;;6.45;1.67;;;12.20;99.90;;;;;;4945939;29;20142;-83
2022/05/29 04:45:41;;;;;;;5.50;1.80;;;12.30;99.90;;;;;;4946905;29;20046;-83
2022/05/29 04:48:07;;;;;;;3.20;1.50;;;12.40;99.90;;;;;;4958562;29;20402;-84
2022/05/29 04:50:35;;;;;;;4.00;1.92;;;12.40;99.90;;;;;;4942931;29;20032;-83
2022/05/29 04:53:01;;;;;;;2.95;1.70;;;12.40;99.90;;;;;;4940260;29;20034;-84
2022/05/29 04:55:27;;;;;;;2.65;1.50;;;12.50;99.90;;;;;;4942748;29;20463;-84
2022/05/29 04:57:52;;;;;;;3.97;1.73;;;12.60;99.90;;;;;;4941873;29;20043;-83
2022/05/29 05:00:18;;;;;;;3.63;1.90;;;12.70;99.90;;;;;;4950649;29;20063;-84
2022/05/29 05:02:44;;;;;;;5.00;1.65;;;12.70;99.90;;;;;;4949645;29;20095;-84
2022/05/29 05:05:11;;;;;;;6.72;1.88;;;12.80;99.90;;;;;;4951044;29;20028;-84
2022/05/29 05:07:37;;;;;;;4.13;1.98;;;13.10;99.90;;;;;;4953987;29;20046;-83
2022/05/29 05:10:05;;;;;;;4.55;1.63;;;13.30;99.90;;;;;;4952227;29;20031;-83
2022/05/29 05:12:30;;;;;;;2.88;1.48;;;13.70;99.90;;;;;;4951039;29;20031;-83
2022/05/29 05:14:56;;;;;;;3.55;1.55;;;13.90;99.90;;;;;;4943114;29;20488;-83
2022/05/29 05:17:22;;;;;;;3.38;1.40;;;14.00;99.90;;;;;;4942292;29;20028;-84
2022/05/29 05:19:48;;;;;;;3.22;1.58;;;14.10;99.90;;;;;;4942860;29;20042;-85
2022/05/29 05:22:14;;;;;;;5.43;1.83;;;14.10;99.90;;;;;;4939630;29;20040;-83
2022/05/29 05:24:39;;;;;;;3.42;1.60;;;14.20;99.90;;;;;;4940648;29;20039;-84
2022/05/29 05:27:07;;;;;;;3.63;1.67;;;14.30;99.90;;;;;;4939681;29;20063;-84
2022/05/29 05:29:34;;;;;;;6.13;1.58;;;14.50;99.90;;;;;;4940107;29;20023;-83
2022/05/29 05:32:00;;;;;;;6.10;1.60;;;14.70;99.90;;;;;;4945192;29;20039;-84
2022/05/29 05:34:27;;;;;;;6.25;1.27;;;15.00;99.90;;;;;;4945683;29;20043;-84
2022/05/29 05:36:55;;;;;;;3.35;1.60;;;15.20;99.90;;;;;;4940297;29;20043;-84
2022/05/29 05:39:20;;;;;;;4.70;1.88;;;15.20;99.90;;;;;;4940903;29;20031;-84
2022/05/29 05:41:46;;;;;;;5.50;1.60;;;14.90;99.90;;;;;;4943021;29;20427;-83
2022/05/29 05:44:12;;;;;;;4.40;1.67;;;14.70;99.90;;;;;;4945202;29;20370;-84
2022/05/29 05:46:44;;;;;;;4.30;1.77;;;14.60;99.90;;;;;;4941183;29;20044;-83
2022/05/29 05:49:10;;;;;;;5.10;1.50;;;14.70;99.90;;;;;;4955816;29;20031;-84
2022/05/29 05:51:36;;;;;;;2.95;1.48;;;14.80;99.90;;;;;;4947930;29;20035;-83
2022/05/29 05:54:01;;;;;;;3.78;1.58;;;14.90;99.90;;;;;;4942713;29;20027;-84
2022/05/29 05:56:27;;;;;;;5.22;1.48;;;15.00;99.90;;;;;;4954083;29;20052;-83
2022/05/29 05:58:53;;;;;;;5.93;1.50;;;15.10;99.90;;;;;;4971729;29;20087;-83
2022/05/29 06:01:18;;;;;;;3.00;1.40;;;15.20;99.90;;;;;;4958027;29;20032;-82
2022/05/29 06:03:44;;;;;;;5.05;1.58;;;15.10;99.90;;;;;;4954096;29;20116;-84
2022/05/29 06:06:10;;;;;;;4.70;1.75;;;15.20;99.90;;;;;;4943750;29;20577;-83
2022/05/29 06:08:36;;;;;;;4.90;1.52;;;15.20;99.90;;;;;;4941365;29;20436;-84
2022/05/29 06:11:02;;;;;;;8.52;1.70;;;15.40;99.90;;;;;;4942448;29;20020;-83
2022/05/29 06:13:28;;;;;;;3.03;1.67;;;15.40;99.90;;;;;;4948382;29;20040;-84
2022/05/29 06:15:54;;;;;;;4.03;1.63;;;15.50;99.90;;;;;;4954251;29;20012;-82
2022/05/29 06:18:20;;;;;;;3.75;1.80;;;15.70;99.80;;;;;;4956387;29;20087;-82
2022/05/29 06:20:46;;;;;;;4.40;1.60;;;15.80;99.70;;;;;;4954023;29;20028;-85
2022/05/29 06:23:13;;;;;;;4.20;1.60;;;16.00;99.20;;;;;;4958015;29;20530;-86
2022/05/29 06:28:11;;;;;;;8.57;1.50;;;16.10;98.20;;;;;;4997355;28;20450;-90
2022/05/29 06:30:37;;;;;;;5.10;1.65;;;16.30;98.10;;;;;;4981764;28;20041;-88
2022/05/29 06:33:03;;;;;;;3.97;1.58;;;16.50;97.80;;;;;;4998999;28;20090;-88
2022/05/29 06:35:29;;;;;;;2.13;1.35;;;16.80;97.20;;;;;;4982456;28;20019;-89
2022/05/29 06:37:55;;;;;;;3.45;1.65;;;16.90;97.00;;;;;;4998824;28;20015;-90
2022/05/29 06:40:21;;;;;;;5.82;1.60;;;16.80;96.90;;;;;;4998655;28;20029;-90
2022/05/29 06:42:48;;;;;;;7.40;1.70;;;16.70;96.80;;;;;;4982101;28;20037;-89
2022/05/29 06:45:13;;;;;;;11.98;1.70;;;16.90;96.70;;;;;;4998585;28;20018;-89
2022/05/29 06:47:40;;;;;;;3.88;1.70;;;17.10;96.40;;;;;;4998190;28;20018;-91
2022/05/29 06:50:07;;;;;;;5.93;2.03;;;17.20;96.60;;;;;;4981923;28;20102;-91
2022/05/29 06:52:33;;;;;;;3.00;1.23;;;17.30;96.70;;;;;;4998031;28;20110;-89
2022/05/29 06:55:00;;;;;;;3.33;1.45;;;17.40;96.30;;;;;;4981353;28;20034;-90
2022/05/29 06:57:36;;;;;;;2.90;1.48;;;17.60;95.70;;;;;;4997991;28;20043;-90
2022/05/29 07:08:24;;;;;;;10.27;1.67;;;18.00;94.60;;;;;;5002320;28;20023;-91
2022/05/29 07:10:49;;;;;;;6.18;1.55;;;17.90;94.90;;;;;;4985309;28;20112;-88
2022/05/29 07:13:15;;;;;;;4.38;2.03;;;17.90;94.70;;;;;;5001994;28;20050;-89
2022/05/29 07:15:41;;;;;;;7.15;1.58;;;17.80;94.60;;;;;;5002113;28;20014;-90
2022/05/29 07:18:07;;;;;;;3.47;1.42;;;18.00;94.50;;;;;;5001967;28;20026;-88
2022/05/29 07:20:35;;;;;;;3.63;1.35;;;18.10;94.40;;;;;;5001010;28;20034;-89
2022/05/29 07:23:01;;;;;;;4.40;1.67;;;18.20;94.00;;;;;;4993029;28;20041;-89
2022/05/29 07:25:27;;;;;;;7.93;1.40;;;18.40;93.90;;;;;;4990865;28;20475;-89
2022/05/29 07:27:54;;;;;;;4.07;1.27;;;18.60;93.70;;;;;;4988640;28;20046;-88
2022/05/29 07:30:20;;;;;;;3.45;1.30;;;18.40;93.10;;;;;;4977793;28;20027;-91
2022/05/29 07:32:47;;;;;;;6.82;1.80;;;18.40;93.50;;;;;;4995912;28;20034;-89
2022/05/29 07:35:13;;;;;;;4.50;1.92;;;18.20;93.60;;;;;;4992500;28;20026;-89
2022/05/29 07:37:41;;;;;;;5.03;1.75;;;18.00;93.70;;;;;;4996742;28;20025;-91
2022/05/29 07:40:08;;;;;;;5.47;1.63;;;17.80;94.00;;;;;;4985510;28;20015;-90
2022/05/29 07:45:18;;;;;;;6.47;2.03;;;18.10;94.00;;;;;;5001511;28;20023;-89
2022/05/29 07:47:48;;;;;;;6.18;1.50;;;18.10;93.30;;;;;;4984588;28;20082;-89
2022/05/29 07:50:20;;;;;;;12.00;1.83;;;18.20;93.10;;;;;;4995965;28;20038;-89
2022/05/29 07:52:47;;;;;;;6.03;1.33;;;18.30;93.10;;;;;;4993952;28;20298;-88
2022/05/29 07:55:14;;;;;;;5.57;1.67;;;18.50;92.60;;;;;;4994394;28;20043;-88
2022/05/29 07:57:40;;;;;;;12.35;2.05;;;18.50;92.10;;;;;;5000352;28;20037;-90
2022/05/29 08:00:09;;;;;;;6.50;1.80;;;18.50;91.90;;;;;;4997283;28;20035;-89
2022/05/29 08:02:37;;;;;;;3.72;1.58;;;18.50;91.80;;;;;;4996669;28;20038;-89
2022/05/29 08:05:05;;;;;;;4.95;2.08;;;18.80;91.80;;;;;;4999198;28;20031;-90
2022/05/29 08:07:31;;;;;;;6.07;2.08;;;18.80;91.50;;;;;;4996631;28;20035;-91
2022/05/29 08:09:57;;;;;;;5.63;2.20;;;18.90;91.40;;;;;;4980728;28;20031;-91
2022/05/29 08:12:23;;;;;;;5.25;1.88;;;19.00;91.10;;;;;;4981151;28;20033;-89
2022/05/29 08:14:49;;;;;;;3.97;1.48;;;19.30;90.70;;;;;;4995083;28;20101;-88
2022/05/29 08:17:15;;;;;;;7.65;1.75;;;19.30;90.70;;;;;;4996251;28;20031;-89
2022/05/29 08:19:41;;;;;;;3.58;1.52;;;19.20;90.40;;;;;;4994441;28;20030;-90
2022/05/29 08:22:07;;;;;;;2.95;1.58;;;19.20;88.60;;;;;;4993568;28;20038;-89
2022/05/29 08:30:38;;;;;;;6.40;1.90;;;19.30;86.90;;;;;;4998244;28;20030;-89
2022/05/29 08:33:13;;;;;;;9.88;1.60;;;19.00;86.30;;;;;;4999962;28;20030;-89
2022/05/29 08:35:43;;;;;;;4.55;1.90;;;19.00;85.00;;;;;;4999539;28;20094;-89
2022/05/29 08:38:10;;;;;;;7.40;1.80;;;19.00;84.20;;;;;;4983559;28;20011;-89
2022/05/29 08:40:49;;;;;;;4.63;2.38;;;18.90;82.70;;;;;;4999491;28;20038;-88
2022/05/29 08:43:25;;;;;;;9.27;1.95;;;18.70;83.60;;;;;;4997980;28;20142;-90
2022/05/29 08:45:51;;;;;;;6.63;1.50;;;18.50;82.20;;;;;;4999997;28;20031;-90
2022/05/29 08:48:21;;;;;;;3.83;1.60;;;18.30;82.20;;;;;;5000260;28;20015;-89
2022/05/29 08:51:01;;;;;;;6.20;2.13;;;18.30;82.20;;;;;;4999962;28;20043;-90
2022/05/29 08:53:41;;;;;;;3.83;1.65;;;18.40;82.80;;;;;;5000085;28;20033;-90
2022/05/29 08:56:23;;;;;;;7.35;1.92;;;18.40;82.40;;;;;;4999616;28;20019;-90
2022/05/29 08:58:57;;;;;;;5.13;1.90;;;18.50;82.70;;;;;;4999506;28;20061;-90
2022/05/29 09:01:32;;;;;;;5.75;2.17;;;18.80;83.10;;;;;;4999365;28;20043;-89
2022/05/29 09:04:10;;;;;;;7.13;1.58;;;19.20;82.80;;;;;;4999382;28;20035;-90
2022/05/29 09:06:52;;;;;;;6.80;1.80;;;19.40;82.60;;;;;;4999093;28;20122;-90
2022/05/29 09:09:39;;;;;;;5.75;1.85;;;19.50;81.50;;;;;;4982832;28;20093;-91
2022/05/29 09:12:11;;;;;;;5.57;2.08;;;19.50;80.60;;;;;;4982319;28;20142;-90
2022/05/29 09:14:50;;;;;;;6.63;1.85;;;19.50;79.60;;;;;;4998679;28;20023;-90
2022/05/29 09:17:34;;;;;;;6.10;2.13;;;19.50;79.90;;;;;;4999043;28;20098;-91
2022/05/29 09:20:07;;;;;;;6.10;1.80;;;19.40;79.40;;;;;;4998233;28;20098;-89
2022/05/29 09:22:44;;;;;;;4.07;1.90;;;19.40;79.60;;;;;;4996985;28;20062;-90
2022/05/29 09:25:30;;;;;;;7.50;2.05;;;19.20;78.10;;;;;;4996987;28;20043;-89
2022/05/29 09:28:01;;;;;;;4.15;1.83;;;19.10;79.20;;;;;;4993369;28;20074;-89
2022/05/29 09:30:28;;;;;;;3.97;1.70;;;18.90;78.50;;;;;;4993722;28;20065;-89
2022/05/29 09:32:58;;;;;;;6.80;1.85;;;18.90;78.90;;;;;;4996526;28;20014;-89
2022/05/29 09:36:04;;;;;;;6.55;2.13;;;18.60;79.00;;;;;;4998297;28;20085;-91
2022/05/29 09:38:41;;;;;;;;;;;18.60;79.50;;;;;;4967473;28;20034;-91
2022/05/29 09:41:13;;;;;;;4.45;2.40;;;18.60;80.00;;;;;;4998645;28;19918;-90
2022/05/29 09:43:39;;;;;;;10.02;2.33;;;18.80;80.10;;;;;;4998262;28;20015;-90
2022/05/29 09:46:30;;;;;;;3.75;1.42;;;18.70;80.30;;;;;;4982501;28;20025;-92
2022/05/29 09:51:55;;;;;;;3.28;1.40;;;18.70;80.20;;;;;;4999284;28;20301;-91
2022/05/29 09:54:29;;;;;;;3.65;1.58;;;18.80;79.30;;;;;;4997039;28;20031;-90
2022/05/29 09:57:06;;;;;;;6.03;2.00;;;18.80;79.20;;;;;;4981542;28;20105;-91
2022/05/29 09:59:39;;;;;;;6.97;1.60;;;18.80;79.70;;;;;;4995680;28;20045;-89
2022/05/29 10:02:06;;;;;;;2.25;1.08;;;18.80;79.70;;;;;;4995865;28;20037;-89
2022/05/29 10:04:41;;;;;;;7.47;1.75;;;18.70;79.20;;;;;;4980838;28;20042;-90
2022/05/29 10:07:29;;;;;;;6.13;1.85;;;18.80;79.60;;;;;;4997560;28;20027;-89
2022/05/29 10:09:58;;;;;;;4.90;1.63;;;18.90;79.30;;;;;;4997612;28;20045;-89
2022/05/29 10:12:35;;;;;;;7.32;1.70;;;18.80;79.60;;;;;;4997529;28;20037;-90
2022/05/29 10:15:02;;;;;;;3.88;2.25;;;18.60;79.70;;;;;;4997993;28;20062;-90
2022/05/29 10:17:27;;;;;;;3.70;1.73;;;18.60;79.60;;;;;;4998050;28;20082;-90
2022/05/29 10:19:53;;;;;;;7.65;1.77;;;18.40;79.70;;;;;;4998911;28;20015;-90
2022/05/29 10:22:36;;;;;;;8.27;1.55;;;18.40;80.00;;;;;;4982249;28;20078;-90
2022/05/29 10:25:16;;;;;;;4.68;1.90;;;18.30;80.00;;;;;;4998581;28;20029;-91
2022/05/29 10:27:47;;;;;;;5.60;2.40;;;18.30;80.00;;;;;;4998744;28;20050;-90
2022/05/29 10:30:38;;;;;;;9.48;2.60;;;18.30;80.10;;;;;;4996122;28;20098;-88
2022/05/29 10:33:09;;;;;;;5.90;1.83;;;18.30;80.20;;;;;;4993084;28;20603;-88
2022/05/29 10:35:41;;;;;;;6.88;1.70;;;18.30;80.40;;;;;;4996720;28;20110;-89
2022/05/29 10:38:19;;;;;;;8.05;1.88;;;18.30;80.70;;;;;;4996885;28;20035;-89
2022/05/29 10:40:48;;;;;;;5.45;1.95;;;18.30;81.10;;;;;;5002894;28;20042;-91
2022/05/29 10:43:39;;;;;;;4.82;1.80;;;18.30;81.50;;;;;;5003128;28;20014;-90
2022/05/29 10:46:18;;;;;;;10.82;2.00;;;18.40;83.20;;;;;;5004060;28;20034;-90
2022/05/29 10:49:01;;;;;;;3.30;1.50;;;18.50;84.30;;;;;;5003613;28;20022;-89
2022/05/29 10:52:08;;;;;;;5.93;2.13;;;18.50;86.50;;;;;;4987257;28;20046;-90
2022/05/29 10:55:06;;;;;;;5.45;1.63;;;18.60;86.00;;;;;;4986802;28;20042;-92
2022/05/29 10:57:58;;;;;;;5.93;1.52;;;18.60;85.70;;;;;;5003562;28;20018;-90
2022/05/29 11:00:51;;;;;;;5.13;1.65;;;18.70;86.90;;;;;;5004107;28;20029;-91
2022/05/29 11:03:35;;;;;;;6.43;2.13;;;18.60;86.30;;;;;;5003677;28;20086;-91
2022/05/29 11:06:16;;;;;;;6.05;1.60;;;18.70;86.00;;;;;;5002180;28;20054;-90
2022/05/29 11:09:24;;;;;;;5.70;2.72;;;18.60;86.70;;;;;;5000238;28;20039;-92
2022/05/29 11:12:41;;;;;;;2.95;1.50;;;18.60;86.70;;;;;;4998273;28;20037;-91
2022/05/29 11:15:25;;;;;;;3.83;1.70;;;18.60;85.20;;;;;;4958226;28;20039;-90
2022/05/29 11:17:57;;;;;;;2.80;1.65;;;19.20;87.80;;;;;;4989934;28;20037;-89
2022/05/29 11:20:45;;;;;;;4.45;1.40;;;19.80;85.00;;;;;;4990221;28;20177;-88
2022/05/29 11:23:17;;;;;;;3.67;1.50;;;20.20;82.60;;;;;;4990830;28;20031;-87
2022/05/29 11:25:56;;;;;;;4.28;1.52;;;20.30;80.40;;;;;;4989321;28;20034;-88
2022/05/29 11:28:50;;;;;;;6.45;1.60;;;20.70;81.10;;;;;;4988495;28;20035;-87
2022/05/29 11:31:47;;;;;;;5.53;1.90;;;21.00;79.60;;;;;;4990099;28;20414;-87
2022/05/29 11:34:28;;;;;;;6.47;1.60;;;21.10;78.90;;;;;;4990638;28;20154;-87
2022/05/29 11:37:06;;;;;;;2.75;1.23;;;21.50;78.50;;;;;;4988318;28;20030;-87
2022/05/29 11:39:48;;;;;;;4.03;1.38;;;21.80;76.90;;;;;;4989432;28;20080;-87
2022/05/29 11:42:22;;;;;;;3.65;1.40;;;22.00;76.10;;;;;;4988306;28;20038;-87
2022/05/29 11:44:57;;;;;;;5.88;2.08;;;22.00;74.60;;;;;;4990088;28;20026;-89
2022/05/29 11:53:58;;;;;;;4.93;1.50;;;21.90;71.80;;;;;;5001182;28;20072;-85
2022/05/29 11:56:33;;;;;;;8.27;2.08;;;21.20;72.70;;;;;;4998923;28;20054;-85
2022/05/29 11:59:09;;;;;;;3.70;1.42;;;21.00;73.30;;;;;;5000080;28;20039;-84
2022/05/29 12:01:42;;;;;;;3.70;1.23;;;20.80;74.40;;;;;;4994140;28;20530;-85
2022/05/29 12:04:41;;;;;;;15.40;4.78;;;20.70;73.30;;;;;;4987672;28;20031;-84
2022/05/29 12:07:19;;;;;;;3.80;1.50;;;20.50;73.60;;;;;;4978539;28;20038;-83
2022/05/29 12:09:55;;;;;;;4.68;1.55;;;20.10;73.90;;;;;;4999701;28;20086;-84
2022/05/29 12:12:28;;;;;;;3.75;1.80;;;20.40;74.50;;;;;;4998755;28;20031;-82
2022/05/29 12:15:10;;;;;;;4.78;1.50;;;20.80;73.30;;;;;;4997588;28;20019;-85
2022/05/29 12:17:45;;;;;;;3.28;1.75;;;20.90;75.40;;;;;;4993970;28;20035;-84
2022/05/29 12:20:41;;;;;;;7.70;1.70;;;21.30;74.00;;;;;;4999316;28;20023;-84
2022/05/29 12:23:25;;;;;;;10.73;1.92;;;21.40;73.40;;;;;;4992472;28;20038;-87
2022/05/29 12:26:19;;;;;;;6.57;2.38;;;21.00;72.60;;;;;;4984701;28;20053;-86
2022/05/29 12:29:18;;;;;;;10.93;2.83;;;20.70;74.00;;;;;;4989158;28;20046;-84
2022/05/29 12:31:50;;;;;;;3.85;1.80;;;20.50;74.50;;;;;;4995317;28;20023;-86
2022/05/29 12:34:27;;;;;;;8.30;1.70;;;20.40;73.10;;;;;;4996680;28;20023;-87
2022/05/29 12:37:47;;;;;;;2.58;1.50;;;20.50;76.50;;;;;;4986524;28;20487;-86
2022/05/29 12:40:24;;;;;;;7.63;1.85;;;20.60;74.40;;;;;;4935646;29;20063;-86
2022/05/29 12:43:27;;;;;;;3.00;1.65;;;20.30;74.30;;;;;;4934280;29;20550;-88
2022/05/29 12:46:23;;;;;;;6.03;2.00;;;20.00;75.70;;;;;;4932319;29;20043;-87
2022/05/29 12:49:28;;;;;;;5.10;2.10;;;19.60;76.30;;;;;;4978126;28;20046;-87
2022/05/29 12:52:17;;;;;;;4.18;1.80;;;19.70;76.80;;;;;;4986905;28;20037;-88
2022/05/29 12:54:54;;;;;;;3.85;1.65;;;19.80;76.10;;;;;;4982646;28;20106;-86
2022/05/29 12:57:48;;;;;;;3.92;1.33;;;19.60;76.20;;;;;;4985159;28;20531;-86
2022/05/29 13:00:38;;;;;;;4.45;1.63;;;19.50;77.20;;;;;;4984294;28;20100;-86
2022/05/29 13:03:07;;;;;;;5.05;1.60;;;19.40;78.00;;;;;;4987506;28;20031;-88
2022/05/29 13:06:10;;;;;;;5.22;1.85;;;19.30;79.20;;;;;;4998747;28;20035;-85
2022/05/29 13:08:51;;;;;;;4.38;1.90;;;19.10;78.80;;;;;;4996114;28;20095;-83
2022/05/29 13:11:31;;;;;;;5.30;1.92;;;18.80;79.40;;;;;;4999321;28;20035;-83
2022/05/29 13:14:02;;;;;;;9.27;2.85;;;17.80;84.40;;;;;;4995850;28;20029;-85
2022/05/29 13:21:30;;;;;;;8.30;2.15;;;16.70;91.20;;;;;;4953315;29;19953;-81
2022/05/29 13:23:57;;;;;;;4.63;1.65;;;16.30;91.80;;;;;;4952526;29;20032;-82
2022/05/29 13:26:29;;;;;;;4.90;1.70;;;15.90;91.60;;;;;;4928805;29;20036;-82
2022/05/29 13:28:59;;;;;;;6.15;1.80;;;15.80;92.60;;;;;;4941803;29;20038;-81
2022/05/29 13:31:26;;;;;;;4.38;1.70;;;16.00;92.40;;;;;;4951406;29;20071;-81
2022/05/29 13:33:59;;;;;;;3.17;1.80;;;16.00;92.50;;;;;;4952124;29;20023;-81
2022/05/29 13:36:42;;;;;;;4.50;1.65;;;16.20;92.90;;;;;;4943318;29;20028;-82
2022/05/29 13:39:09;;;;;;;5.68;1.73;;;16.40;92.30;;;;;;4949188;29;20095;-81
2022/05/29 13:42:04;;;;;;;2.47;1.52;;;16.20;91.90;;;;;;4937726;29;20055;-81
2022/05/29 13:44:30;;;;;;;7.60;2.08;;;16.10;92.10;;;;;;4949027;29;20056;-80
2022/05/29 13:47:22;;;;;;;6.07;2.95;;;16.10;92.40;;;;;;4937440;29;20497;-83
2022/05/29 13:50:03;;;;;;;5.13;2.05;;;16.20;92.20;;;;;;4944432;29;20035;-81
2022/05/29 13:52:48;;;;;;;8.45;2.35;;;16.20;92.40;;;;;;4943513;29;20043;-81
2022/05/29 13:55:20;;;;;;;7.73;1.67;;;16.30;92.90;;;;;;4932703;29;20043;-82
2022/05/29 14:03:58;;;;;;;5.75;2.08;;;15.90;95.20;;;;;;4950290;29;20023;-83
2022/05/29 14:06:30;;;;;;;5.95;1.90;;;15.60;95.70;;;;;;4947988;29;20047;-80